Time;durP1;ratioP1;P1;durP2;ratioP2;P2;SDS_P1;SDS_P2;PMS_P1;PMS_P2;Temp;Humidity;BMP_temperature;BMP_pressure;BME280_temperature;BME280_humidity;BME280_pressure;Samples;Min_cycle;Max_cycle;Signal;HPM_P1;HPM_P2
2022/05/13 00:02:21;;;;;;;13.13;3.45;;;12.00;99.90;;;;;;5097925;28;20039;-76
2022/05/13 00:04:47;;;;;;;10.98;4.38;;;12.00;99.90;;;;;;5097985;28;20456;-76
2022/05/13 00:07:12;;;;;;;17.85;4.35;;;12.00;99.90;;;;;;5079378;28;20126;-75
2022/05/13 00:09:56;;;;;;;12.30;5.47;;;12.00;99.90;;;;;;5094595;28;20131;-75
2022/05/13 00:12:24;;;;;;;10.57;4.10;;;11.90;99.90;;;;;;5099278;28;20040;-76
2022/05/13 00:14:51;;;;;;;12.32;3.30;;;11.90;99.90;;;;;;5076116;28;20056;-76
2022/05/13 00:17:18;;;;;;;10.23;3.60;;;11.90;99.90;;;;;;5091251;28;20085;-76
2022/05/13 00:19:44;;;;;;;12.35;3.70;;;12.00;99.90;;;;;;5099439;28;20058;-75
2022/05/13 00:22:10;;;;;;;9.70;3.50;;;12.00;99.90;;;;;;5098520;28;20172;-75
2022/05/13 00:24:36;;;;;;;9.93;3.38;;;12.00;99.90;;;;;;5083027;28;20482;-75
2022/05/13 00:27:03;;;;;;;9.32;3.40;;;12.00;99.90;;;;;;5102418;28;20046;-76
2022/05/13 00:29:28;;;;;;;13.95;3.30;;;12.00;99.90;;;;;;5075696;28;22020;-76
2022/05/13 00:31:54;;;;;;;10.05;3.50;;;12.00;99.90;;;;;;5088444;28;20062;-76
2022/05/13 00:34:21;;;;;;;14.02;3.88;;;12.00;99.90;;;;;;5079276;28;20074;-76
2022/05/13 00:36:47;;;;;;;10.82;3.35;;;12.00;99.90;;;;;;5081373;28;20043;-76
2022/05/13 00:39:13;;;;;;;19.48;4.05;;;12.10;99.90;;;;;;5097651;28;20036;-76
2022/05/13 00:41:39;;;;;;;9.85;3.33;;;12.00;99.90;;;;;;5095466;28;20051;-75
2022/05/13 00:44:05;;;;;;;14.43;3.50;;;12.10;99.90;;;;;;5106556;28;20048;-74
2022/05/13 00:46:32;;;;;;;12.13;3.40;;;12.10;99.90;;;;;;5107582;28;20042;-76
2022/05/13 00:49:01;;;;;;;10.48;3.25;;;12.10;99.90;;;;;;5092112;28;20044;-76
2022/05/13 00:51:36;;;;;;;11.20;3.05;;;12.10;99.90;;;;;;5107574;28;20042;-76
2022/05/13 00:54:04;;;;;;;14.02;3.40;;;12.00;99.90;;;;;;5097528;28;20402;-76
2022/05/13 00:56:30;;;;;;;13.00;3.33;;;12.10;99.90;;;;;;5098175;28;20056;-75
2022/05/13 00:59:01;;;;;;;15.98;3.60;;;12.10;99.90;;;;;;5106574;28;20048;-75
2022/05/13 01:01:28;;;;;;;13.07;3.20;;;12.00;99.90;;;;;;5091288;28;20482;-76
2022/05/13 01:04:07;;;;;;;16.83;3.35;;;12.00;99.90;;;;;;5097680;28;20031;-76
2022/05/13 01:06:33;;;;;;;16.73;3.45;;;12.00;99.90;;;;;;5108641;28;20049;-76
2022/05/13 01:09:00;;;;;;;13.18;3.17;;;12.10;99.90;;;;;;5100075;28;20075;-76
2022/05/13 01:11:28;;;;;;;13.77;3.30;;;12.10;99.90;;;;;;5093805;28;20039;-76
2022/05/13 01:14:06;;;;;;;12.68;3.63;;;12.10;99.90;;;;;;5078818;28;20050;-75
2022/05/13 01:18:05;;;;;;;10.77;3.30;;;12.10;99.90;;;;;;5097530;28;20510;-75
2022/05/13 01:19:18;;;;;;;14.05;3.50;;;12.20;99.90;;;;;;5101911;28;20058;-76
2022/05/13 01:21:45;;;;;;;13.23;3.40;;;12.10;99.90;;;;;;5075125;28;20051;-76
2022/05/13 01:24:11;;;;;;;14.45;3.28;;;12.20;99.90;;;;;;5073271;28;20151;-75
2022/05/13 01:26:36;;;;;;;9.98;3.30;;;12.10;99.90;;;;;;5083024;28;20142;-75
2022/05/13 01:29:03;;;;;;;11.68;3.30;;;12.10;99.90;;;;;;5090672;28;20036;-75
2022/05/13 01:31:31;;;;;;;13.63;3.58;;;12.10;99.90;;;;;;5079688;28;20071;-76
2022/05/13 01:34:01;;;;;;;15.32;4.00;;;12.10;99.90;;;;;;5073009;28;20035;-75
2022/05/13 01:36:28;;;;;;;15.70;3.80;;;12.10;99.90;;;;;;5100381;28;20046;-75
2022/05/13 01:38:55;;;;;;;15.80;3.90;;;12.10;99.90;;;;;;5082330;28;20449;-75
2022/05/13 01:41:22;;;;;;;17.60;3.83;;;12.10;99.90;;;;;;5100246;28;20165;-75
2022/05/13 01:43:49;;;;;;;11.63;3.72;;;12.00;99.90;;;;;;5077256;28;20036;-75
2022/05/13 01:46:16;;;;;;;14.60;3.95;;;12.10;99.90;;;;;;5094613;28;20040;-75
2022/05/13 01:48:42;;;;;;;14.32;3.75;;;12.10;99.90;;;;;;5096528;28;20040;-76
2022/05/13 01:51:09;;;;;;;10.57;3.45;;;12.10;99.90;;;;;;5091730;28;20040;-75
2022/05/13 01:53:36;;;;;;;19.85;3.95;;;12.10;99.90;;;;;;5097022;28;20032;-75
2022/05/13 01:56:02;;;;;;;16.80;4.20;;;12.10;99.90;;;;;;5097006;28;20052;-75
2022/05/13 01:58:27;;;;;;;15.40;4.43;;;12.10;99.90;;;;;;5079270;28;20127;-75
2022/05/13 02:00:56;;;;;;;13.63;4.03;;;12.10;99.90;;;;;;5074434;28;20578;-75
2022/05/13 02:06:07;;;;;;;21.92;4.32;;;12.10;99.90;;;;;;5093116;28;20044;-75
2022/05/13 02:08:34;;;;;;;15.98;4.30;;;12.10;99.90;;;;;;5106953;28;20043;-75
2022/05/13 02:11:01;;;;;;;15.50;4.22;;;12.20;99.90;;;;;;5098242;28;20066;-73
2022/05/13 02:13:27;;;;;;;18.52;4.75;;;12.00;99.90;;;;;;5101163;28;20118;-73
2022/05/13 02:15:53;;;;;;;17.52;4.10;;;12.10;99.90;;;;;;5086984;28;20059;-75
2022/05/13 02:18:19;;;;;;;22.25;4.70;;;12.10;99.90;;;;;;5096352;28;20032;-75
2022/05/13 02:20:46;;;;;;;16.30;4.35;;;12.10;99.90;;;;;;5103148;28;20066;-75
2022/05/13 02:23:15;;;;;;;14.98;3.95;;;12.10;99.90;;;;;;5083304;28;20043;-75
2022/05/13 02:25:42;;;;;;;23.92;4.68;;;12.10;99.90;;;;;;5084603;28;20044;-76
2022/05/13 02:28:08;;;;;;;18.77;4.63;;;12.10;99.90;;;;;;5093008;28;20046;-75
2022/05/13 02:30:34;;;;;;;17.30;4.57;;;12.10;99.90;;;;;;5074502;28;20127;-75
2022/05/13 02:33:00;;;;;;;17.80;4.65;;;12.10;99.90;;;;;;5078080;28;20052;-76
2022/05/13 02:35:27;;;;;;;14.00;4.60;;;12.10;99.90;;;;;;5088966;28;20048;-75
2022/05/13 02:37:53;;;;;;;20.33;4.53;;;12.10;99.90;;;;;;5093151;28;20055;-75
2022/05/13 02:40:20;;;;;;;28.95;4.57;;;12.10;99.90;;;;;;5095406;28;20043;-75
2022/05/13 02:42:46;;;;;;;23.65;4.70;;;12.10;99.90;;;;;;5095466;28;20383;-75
2022/05/13 02:45:11;;;;;;;24.00;4.72;;;12.10;99.90;;;;;;5101670;28;20035;-76
2022/05/13 02:47:38;;;;;;;15.20;4.57;;;12.10;99.90;;;;;;5076496;28;20035;-76
2022/05/13 02:50:17;;;;;;;18.55;4.40;;;12.10;99.90;;;;;;5099018;28;20454;-76
2022/05/13 02:52:44;;;;;;;18.27;4.78;;;12.00;99.90;;;;;;5077042;28;20039;-76
2022/05/13 02:55:10;;;;;;;18.27;4.90;;;12.00;99.90;;;;;;5091448;28;20070;-76
2022/05/13 02:57:36;;;;;;;15.45;4.72;;;12.00;99.90;;;;;;5093288;28;20144;-76
2022/05/13 03:00:04;;;;;;;16.25;4.80;;;12.00;99.90;;;;;;5102303;28;20406;-75
2022/05/13 03:02:30;;;;;;;16.70;4.53;;;12.00;99.90;;;;;;5103874;28;20083;-76
2022/05/13 03:04:56;;;;;;;16.13;4.38;;;12.00;99.90;;;;;;5095179;28;20081;-76
2022/05/13 03:07:21;;;;;;;15.82;4.82;;;12.00;99.90;;;;;;5106307;28;20398;-76
2022/05/13 03:09:47;;;;;;;24.35;4.85;;;11.90;99.90;;;;;;5079220;28;20130;-76
2022/05/13 03:12:13;;;;;;;22.02;4.88;;;12.00;99.90;;;;;;5090090;28;20166;-76
2022/05/13 03:14:38;;;;;;;23.40;4.80;;;12.00;99.90;;;;;;5072595;28;20138;-76
2022/05/13 03:17:05;;;;;;;22.52;4.68;;;11.90;99.90;;;;;;5096121;28;20101;-76
2022/05/13 03:19:31;;;;;;;14.65;4.10;;;11.90;99.90;;;;;;5076279;28;20082;-76
2022/05/13 03:21:57;;;;;;;15.73;4.38;;;11.90;99.90;;;;;;5097264;28;20074;-76
2022/05/13 03:24:23;;;;;;;20.20;4.50;;;11.90;99.90;;;;;;5068077;28;20053;-76
2022/05/13 03:26:49;;;;;;;16.67;4.10;;;11.90;99.90;;;;;;5090066;28;20289;-76
2022/05/13 03:29:15;;;;;;;19.60;4.72;;;11.80;99.90;;;;;;5097997;28;20043;-76
2022/05/13 03:31:41;;;;;;;20.27;4.80;;;11.90;99.90;;;;;;5092456;28;20112;-76
2022/05/13 03:34:07;;;;;;;20.38;4.78;;;11.80;99.90;;;;;;5081603;28;20459;-76
2022/05/13 03:36:32;;;;;;;19.30;4.70;;;11.90;99.90;;;;;;5085313;28;20039;-75
2022/05/13 03:38:58;;;;;;;19.67;5.00;;;11.90;99.90;;;;;;5086575;28;20049;-74
2022/05/13 03:41:23;;;;;;;18.95;4.53;;;11.90;99.90;;;;;;5096657;28;20055;-74
2022/05/13 03:43:49;;;;;;;23.00;4.90;;;11.90;99.90;;;;;;5099814;28;20447;-76
2022/05/13 03:46:15;;;;;;;26.10;5.25;;;11.90;99.90;;;;;;5089618;28;20467;-76
2022/05/13 03:48:41;;;;;;;17.67;5.13;;;11.90;99.90;;;;;;5074755;28;20044;-76
2022/05/13 03:51:06;;;;;;;18.92;4.90;;;11.80;99.90;;;;;;5092094;28;20512;-76
2022/05/13 03:53:32;;;;;;;18.30;4.82;;;12.00;99.90;;;;;;5078444;28;20502;-76
2022/05/13 03:55:58;;;;;;;18.63;5.15;;;11.80;99.90;;;;;;5095933;28;20047;-77
2022/05/13 03:58:23;;;;;;;18.52;4.57;;;11.80;99.90;;;;;;5089145;28;20054;-77
2022/05/13 04:00:51;;;;;;;20.08;5.05;;;12.00;99.90;;;;;;5093686;28;20046;-77
2022/05/13 04:03:18;;;;;;;24.55;5.22;;;11.90;99.90;;;;;;5079683;28;20032;-77
2022/05/13 04:11:14;;;;;;;29.15;5.13;;;11.90;99.90;;;;;;5095152;28;20125;-77
2022/05/13 04:16:24;;;;;;;22.27;5.70;;;12.10;99.90;;;;;;5097489;28;20044;-77
2022/05/13 04:18:53;;;;;;;24.20;5.60;;;12.00;99.90;;;;;;5092277;28;20047;-77
2022/05/13 04:21:20;;;;;;;24.27;5.55;;;12.10;99.90;;;;;;5083055;28;20070;-78
2022/05/13 04:23:48;;;;;;;21.10;4.70;;;12.10;99.90;;;;;;5097747;28;20065;-77
2022/05/13 04:26:15;;;;;;;28.63;5.65;;;12.20;99.90;;;;;;5074048;28;20038;-77
2022/05/13 04:28:47;;;;;;;33.35;5.60;;;12.10;99.90;;;;;;5098538;28;20499;-78
2022/05/13 04:31:14;;;;;;;25.15;5.05;;;12.30;99.90;;;;;;5075570;28;20437;-77
2022/05/13 04:33:41;;;;;;;28.40;5.85;;;12.10;99.90;;;;;;5093459;28;20050;-77
2022/05/13 04:36:07;;;;;;;32.58;6.10;;;12.20;99.90;;;;;;5099631;28;20467;-77
2022/05/13 04:38:34;;;;;;;32.53;5.35;;;12.10;99.90;;;;;;5090539;28;20497;-76
2022/05/13 04:42:49;;;;;;;30.58;5.38;;;12.20;99.90;;;;;;5080014;28;20043;-75
2022/05/13 04:43:46;;;;;;;26.08;5.50;;;12.20;99.90;;;;;;5095498;28;20552;-75
2022/05/13 04:46:11;;;;;;;26.23;5.88;;;12.20;99.90;;;;;;5096463;28;20143;-76
2022/05/13 04:48:37;;;;;;;22.33;4.68;;;12.40;99.90;;;;;;5081397;28;20127;-77
2022/05/13 04:51:03;;;;;;;25.52;5.50;;;12.30;99.90;;;;;;5076356;28;20058;-77
2022/05/13 04:53:31;;;;;;;21.80;4.63;;;12.30;99.90;;;;;;5094319;28;20118;-76
2022/05/13 04:55:58;;;;;;;29.55;5.15;;;12.30;99.90;;;;;;5073826;28;20048;-77
2022/05/13 04:58:25;;;;;;;23.50;4.70;;;12.40;99.90;;;;;;5058134;28;20040;-76
2022/05/13 05:00:53;;;;;;;25.27;4.97;;;12.90;99.90;;;;;;5072787;28;20129;-75
2022/05/13 05:03:21;;;;;;;27.00;4.80;;;12.40;99.90;;;;;;5063492;28;20521;-76
2022/05/13 05:05:47;;;;;;;21.38;4.70;;;12.40;99.90;;;;;;5062525;28;20495;-77
2022/05/13 05:08:15;;;;;;;22.45;4.60;;;12.50;99.90;;;;;;5075807;28;20105;-74
2022/05/13 05:10:41;;;;;;;21.15;4.35;;;12.50;99.90;;;;;;5076798;28;20040;-74
2022/05/13 05:13:17;;;;;;;22.20;4.70;;;12.60;99.90;;;;;;5079227;28;20462;-76
2022/05/13 05:15:45;;;;;;;21.40;4.43;;;12.60;99.90;;;;;;5078543;28;20467;-75
2022/05/13 05:18:11;;;;;;;24.63;4.70;;;12.70;99.90;;;;;;5073084;28;20036;-77
2022/05/13 05:20:37;;;;;;;16.77;3.83;;;12.80;99.90;;;;;;5053239;28;20506;-75
2022/05/13 05:23:05;;;;;;;23.55;3.70;;;12.80;99.90;;;;;;5071620;28;20114;-75
2022/05/13 05:25:31;;;;;;;18.38;3.70;;;12.90;99.90;;;;;;5063996;28;20035;-79
2022/05/13 05:27:57;;;;;;;13.23;3.33;;;12.90;99.90;;;;;;5056017;28;20067;-77
2022/05/13 05:30:24;;;;;;;15.32;2.90;;;13.00;99.90;;;;;;5052605;28;20077;-76
2022/05/13 05:32:51;;;;;;;16.70;3.35;;;13.10;99.90;;;;;;5056526;28;20052;-78
2022/05/13 05:35:19;;;;;;;14.93;3.00;;;13.20;99.90;;;;;;5073895;28;20043;-76
2022/05/13 05:37:46;;;;;;;13.00;3.05;;;13.30;99.90;;;;;;5061400;28;20040;-76
2022/05/13 05:40:12;;;;;;;14.73;3.33;;;13.30;99.90;;;;;;5073537;28;20428;-76
2022/05/13 05:42:39;;;;;;;13.75;3.00;;;13.40;99.90;;;;;;5071446;28;20482;-76
2022/05/13 05:45:07;;;;;;;16.70;3.13;;;13.30;99.90;;;;;;5060083;28;20411;-75
2022/05/13 05:47:34;;;;;;;14.43;3.00;;;13.30;99.90;;;;;;5069982;28;20122;-75
2022/05/13 05:50:00;;;;;;;14.55;3.15;;;13.40;99.90;;;;;;5054229;28;20082;-76
2022/05/13 05:52:26;;;;;;;13.50;2.60;;;13.40;99.90;;;;;;5061874;28;20032;-76
2022/05/13 05:57:37;;;;;;;15.05;2.85;;;13.30;99.90;;;;;;5087309;28;20044;-78
2022/05/13 06:00:06;;;;;;;10.10;2.58;;;13.30;99.90;;;;;;5090441;28;22189;-76
2022/05/13 06:02:32;;;;;;;10.35;2.55;;;13.30;99.90;;;;;;5088817;28;20039;-76
2022/05/13 06:04:58;;;;;;;10.20;2.83;;;13.40;99.90;;;;;;5070826;28;20072;-77
2022/05/13 06:07:26;;;;;;;17.10;3.03;;;13.30;99.90;;;;;;5090021;28;20048;-77
2022/05/13 06:09:52;;;;;;;14.52;2.33;;;13.30;99.90;;;;;;5070088;28;20090;-77
2022/05/13 06:12:18;;;;;;;14.25;2.90;;;13.30;99.90;;;;;;5089569;28;20050;-76
2022/05/13 06:14:44;;;;;;;12.95;2.95;;;13.40;99.90;;;;;;5090708;28;20491;-78
2022/05/13 06:17:10;;;;;;;10.57;2.38;;;13.40;99.90;;;;;;5103347;28;20046;-75
2022/05/13 06:19:37;;;;;;;13.82;2.60;;;13.40;99.90;;;;;;5088401;28;20048;-76
2022/05/13 06:22:04;;;;;;;11.13;2.53;;;13.50;99.90;;;;;;5098244;28;20158;-77
2022/05/13 06:24:30;;;;;;;11.25;2.25;;;13.50;99.90;;;;;;5087536;28;20124;-77
2022/05/13 06:26:55;;;;;;;15.55;2.60;;;13.50;99.90;;;;;;5104564;28;20467;-77
2022/05/13 06:29:23;;;;;;;8.10;2.25;;;13.70;99.90;;;;;;5098197;28;20602;-78
2022/05/13 06:31:49;;;;;;;11.52;2.55;;;13.70;99.90;;;;;;5092847;28;20059;-76
2022/05/13 06:34:15;;;;;;;14.48;2.55;;;13.80;99.90;;;;;;5094824;28;20069;-77
2022/05/13 06:36:41;;;;;;;13.95;2.97;;;13.80;99.90;;;;;;5078501;28;20043;-72
2022/05/13 06:39:07;;;;;;;10.65;2.30;;;13.80;99.90;;;;;;5074620;28;20121;-75
2022/05/13 06:41:37;;;;;;;13.02;2.78;;;13.80;99.90;;;;;;5074370;28;20903;-75
2022/05/13 06:44:08;;;;;;;16.70;2.80;;;13.90;99.90;;;;;;5069009;28;20513;-75
2022/05/13 06:46:35;;;;;;;15.63;2.35;;;13.90;99.90;;;;;;5085076;28;20110;-75
2022/05/13 06:49:06;;;;;;;12.50;2.30;;;14.10;99.90;;;;;;5070579;28;20059;-75
2022/05/13 06:51:33;;;;;;;10.57;2.30;;;14.20;99.90;;;;;;5089094;28;20032;-75
2022/05/13 06:54:07;;;;;;;9.77;2.30;;;14.20;99.90;;;;;;5100453;28;20059;-74
2022/05/13 06:56:36;;;;;;;13.82;2.60;;;14.30;99.90;;;;;;5083881;28;20123;-74
2022/05/13 06:59:04;;;;;;;15.15;2.97;;;14.50;99.90;;;;;;5111014;28;20035;-75
2022/05/13 07:01:30;;;;;;;10.00;2.47;;;14.50;99.90;;;;;;5085469;28;20078;-73
2022/05/13 07:03:56;;;;;;;7.35;2.03;;;14.50;99.90;;;;;;5092031;28;20048;-76
2022/05/13 07:06:22;;;;;;;15.77;2.97;;;14.60;99.90;;;;;;5074384;28;20072;-76
2022/05/13 07:08:50;;;;;;;9.90;2.05;;;14.60;99.90;;;;;;5091139;28;20115;-75
2022/05/13 07:11:19;;;;;;;8.60;2.42;;;14.50;99.90;;;;;;5091730;28;20472;-76
2022/05/13 07:13:45;;;;;;;12.45;2.63;;;14.50;99.90;;;;;;5090159;28;20071;-76
2022/05/13 07:16:11;;;;;;;10.52;2.53;;;14.40;99.90;;;;;;5092301;28;20051;-76
2022/05/13 07:18:38;;;;;;;9.30;2.13;;;14.30;99.90;;;;;;5088426;28;20043;-75
2022/05/13 07:21:05;;;;;;;7.63;2.00;;;14.30;99.90;;;;;;5073635;28;20549;-77
2022/05/13 07:23:31;;;;;;;12.25;2.63;;;14.30;99.90;;;;;;5086180;28;20055;-76
2022/05/13 07:25:57;;;;;;;9.70;2.13;;;14.20;99.90;;;;;;5070479;28;20035;-76
2022/05/13 07:28:23;;;;;;;13.50;2.40;;;14.40;99.90;;;;;;5075013;28;20067;-76
2022/05/13 07:30:49;;;;;;;12.75;2.70;;;14.40;99.90;;;;;;5086386;28;20230;-76
2022/05/13 07:33:15;;;;;;;15.43;2.42;;;14.40;99.90;;;;;;5072867;28;20134;-75
2022/05/13 07:35:41;;;;;;;7.35;1.85;;;14.50;99.90;;;;;;5088460;28;20050;-77
2022/05/13 07:38:07;;;;;;;7.20;1.75;;;14.50;99.90;;;;;;5085720;28;20036;-75
2022/05/13 07:43:18;;;;;;;8.13;2.00;;;14.90;99.90;;;;;;5092470;28;20134;-77
2022/05/13 07:45:44;;;;;;;13.07;2.22;;;15.20;99.90;;;;;;5090127;28;20047;-74
2022/05/13 07:48:10;;;;;;;13.93;1.95;;;15.20;99.90;;;;;;5068791;28;20126;-78
2022/05/13 07:50:36;;;;;;;11.00;2.10;;;14.90;99.90;;;;;;5088484;28;20044;-76
2022/05/13 07:53:01;;;;;;;12.60;2.20;;;15.10;99.90;;;;;;5068531;28;20035;-76
2022/05/13 07:55:28;;;;;;;11.90;2.13;;;15.10;99.90;;;;;;5094358;28;20461;-76
2022/05/13 07:57:53;;;;;;;9.10;2.00;;;15.10;99.90;;;;;;5092866;28;20359;-75
2022/05/13 08:00:38;;;;;;;12.13;1.90;;;15.20;99.90;;;;;;5086420;28;20068;-77
2022/05/13 08:03:12;;;;;;;11.27;2.13;;;15.30;99.90;;;;;;5080388;28;20104;-74
2022/05/13 08:05:44;;;;;;;5.30;1.73;;;15.30;99.90;;;;;;5099373;28;20044;-75
2022/05/13 08:08:23;;;;;;;7.30;1.60;;;15.20;99.90;;;;;;5084920;28;20256;-75
2022/05/13 08:10:55;;;;;;;8.02;1.85;;;15.00;99.90;;;;;;5089092;28;20048;-76
2022/05/13 08:13:21;;;;;;;9.65;2.22;;;15.10;99.90;;;;;;5071710;28;20063;-74
2022/05/13 08:15:47;;;;;;;10.80;1.85;;;15.10;99.90;;;;;;5075605;28;20059;-76
2022/05/13 08:18:14;;;;;;;8.25;1.75;;;15.00;99.90;;;;;;5109106;27;20118;-79
2022/05/13 08:20:40;;;;;;;5.00;1.92;;;15.00;99.90;;;;;;5094179;28;20046;-81
2022/05/13 08:23:06;;;;;;;8.85;2.22;;;15.00;99.90;;;;;;5074783;28;20036;-77
2022/05/13 08:25:32;;;;;;;5.78;1.90;;;15.00;99.90;;;;;;5071882;28;20512;-76
2022/05/13 08:27:58;;;;;;;7.05;1.70;;;15.10;99.90;;;;;;5073875;28;20048;-79
2022/05/13 08:30:25;;;;;;;10.88;1.90;;;15.50;99.90;;;;;;5086909;28;20051;-76
2022/05/13 08:32:51;;;;;;;10.50;2.30;;;15.40;99.90;;;;;;5072639;28;20077;-75
2022/05/13 08:35:17;;;;;;;10.82;2.15;;;15.30;99.90;;;;;;5087139;28;20088;-76
2022/05/13 08:37:47;;;;;;;8.50;1.98;;;15.20;99.90;;;;;;5074406;28;20055;-76
2022/05/13 08:40:54;;;;;;;12.75;1.98;;;15.30;99.90;;;;;;5093850;28;20046;-77
2022/05/13 08:43:39;;;;;;;7.53;1.98;;;15.60;99.90;;;;;;5059249;28;20060;-77
2022/05/13 08:46:16;;;;;;;8.87;2.20;;;15.70;99.90;;;;;;5047890;28;20051;-76
2022/05/13 08:49:00;;;;;;;10.88;2.20;;;15.70;99.90;;;;;;5059338;28;20310;-76
2022/05/13 08:51:47;;;;;;;6.57;1.90;;;15.50;99.90;;;;;;5038735;28;20054;-77
2022/05/13 08:54:20;;;;;;;8.05;1.98;;;15.20;99.90;;;;;;5076763;28;20140;-77
2022/05/13 08:56:50;;;;;;;10.48;2.05;;;15.20;99.90;;;;;;5061262;28;20485;-77
2022/05/13 08:59:41;;;;;;;8.88;1.73;;;15.30;99.90;;;;;;5063032;28;20422;-77
2022/05/13 09:02:21;;;;;;;10.75;1.70;;;15.40;99.90;;;;;;5057867;28;20101;-77
2022/05/13 09:04:51;;;;;;;6.65;1.77;;;15.50;99.90;;;;;;5064602;28;20036;-77
2022/05/13 09:07:19;;;;;;;9.75;1.58;;;15.80;99.90;;;;;;5056595;28;20079;-76
2022/05/13 09:09:50;;;;;;;8.00;1.75;;;15.70;99.90;;;;;;5044214;28;20083;-76
2022/05/13 09:12:41;;;;;;;11.88;1.48;;;15.50;99.90;;;;;;5044564;28;20079;-80
2022/05/13 09:15:16;;;;;;;9.38;2.00;;;15.70;99.90;;;;;;5045453;28;20036;-77
2022/05/13 09:17:55;;;;;;;;;;;16.00;99.90;;;;;;5043814;28;20046;-77
2022/05/13 09:20:24;;;;;;;8.48;1.77;;;16.00;99.90;;;;;;5070621;28;19923;-77
2022/05/13 09:22:52;;;;;;;9.55;1.50;;;16.20;99.90;;;;;;5094332;28;20154;-76
2022/05/13 09:25:37;;;;;;;5.50;1.40;;;16.00;99.90;;;;;;5099678;28;20367;-79
2022/05/13 09:28:12;;;;;;;12.23;1.60;;;15.90;99.90;;;;;;5098003;28;20054;-79
2022/05/13 09:30:51;;;;;;;14.65;1.90;;;15.90;99.90;;;;;;5088806;28;20461;-73
2022/05/13 09:33:32;;;;;;;4.90;1.70;;;16.10;99.90;;;;;;5090405;28;20051;-73
2022/05/13 09:36:04;;;;;;;6.78;1.67;;;16.10;99.90;;;;;;5083606;28;20040;-75
2022/05/13 09:38:39;;;;;;;7.38;2.22;;;16.00;99.90;;;;;;5078473;28;20055;-78
2022/05/13 09:41:08;;;;;;;9.63;1.33;;;16.00;99.90;;;;;;5085180;28;20411;-76
2022/05/13 09:43:43;;;;;;;15.88;1.30;;;15.80;99.90;;;;;;5095565;28;20072;-75
2022/05/13 09:46:29;;;;;;;7.55;1.33;;;15.80;99.90;;;;;;5095555;28;20045;-76
2022/05/13 09:49:01;;;;;;;6.80;1.30;;;15.80;99.90;;;;;;5078369;28;20055;-76
2022/05/13 09:51:52;;;;;;;8.27;1.75;;;15.80;99.90;;;;;;5098207;28;20047;-78
2022/05/13 09:54:31;;;;;;;8.60;1.58;;;15.90;99.90;;;;;;5077302;28;20483;-77
2022/05/13 09:57:11;;;;;;;7.30;1.58;;;15.80;99.90;;;;;;5072011;28;20528;-77
2022/05/13 09:59:40;;;;;;;12.50;2.00;;;15.70;99.90;;;;;;5082985;28;20067;-77
2022/05/13 10:02:17;;;;;;;8.85;1.80;;;15.80;99.90;;;;;;5090527;28;20146;-78
2022/05/13 10:04:50;;;;;;;15.32;2.38;;;15.90;99.90;;;;;;5074300;28;20048;-79
2022/05/13 10:07:17;;;;;;;7.93;1.65;;;16.10;99.90;;;;;;5088761;28;20056;-76
2022/05/13 10:15:42;;;;;;;12.82;2.40;;;16.10;99.90;;;;;;5093999;28;20036;-76
2022/05/13 10:18:29;;;;;;;14.35;2.75;;;16.50;99.90;;;;;;5093701;28;20189;-79
2022/05/13 10:21:33;;;;;;;11.35;2.08;;;16.90;99.90;;;;;;5091033;28;20054;-76
2022/05/13 10:24:04;;;;;;;11.48;2.38;;;17.20;99.90;;;;;;5092741;28;20044;-77
2022/05/13 10:26:38;;;;;;;13.38;2.28;;;17.30;99.90;;;;;;5092166;28;20459;-77
2022/05/13 10:29:16;;;;;;;12.15;2.13;;;17.10;99.90;;;;;;5093854;28;20089;-77
2022/05/13 10:31:44;;;;;;;12.55;1.88;;;16.90;99.90;;;;;;5076494;28;20459;-76
2022/05/13 10:34:31;;;;;;;9.10;2.03;;;16.60;99.90;;;;;;5088446;28;20131;-78
2022/05/13 10:37:11;;;;;;;9.52;2.00;;;16.80;99.90;;;;;;5069441;28;20079;-77
2022/05/13 10:39:45;;;;;;;10.88;1.75;;;17.20;99.90;;;;;;5084065;28;20515;-75
2022/05/13 10:42:35;;;;;;;15.68;2.40;;;17.30;99.90;;;;;;5072799;28;20055;-75
2022/05/13 10:45:08;;;;;;;11.30;2.03;;;17.20;99.90;;;;;;5098808;28;20083;-75
2022/05/13 10:47:45;;;;;;;9.27;2.40;;;17.00;99.90;;;;;;5089128;28;20138;-76
2022/05/13 10:50:22;;;;;;;6.22;1.95;;;16.80;99.90;;;;;;5081879;28;20128;-78
2022/05/13 10:53:06;;;;;;;10.82;2.20;;;16.80;99.90;;;;;;5082103;28;20051;-77
2022/05/13 10:55:35;;;;;;;7.28;1.60;;;16.70;99.90;;;;;;5088306;28;20048;-78
2022/05/13 10:58:38;;;;;;;8.00;1.42;;;16.70;99.90;;;;;;5076620;28;20052;-74
2022/05/13 11:01:25;;;;;;;5.82;1.80;;;16.80;99.90;;;;;;5099758;28;20124;-75
2022/05/13 11:04:18;;;;;;;7.43;1.80;;;16.90;99.90;;;;;;5090661;28;20094;-76
2022/05/13 11:07:03;;;;;;;11.20;1.83;;;17.00;99.90;;;;;;5080362;28;20044;-76
2022/05/13 11:09:29;;;;;;;9.45;2.15;;;16.90;99.90;;;;;;5083384;28;20067;-77
2022/05/13 11:12:27;;;;;;;7.72;1.60;;;16.90;99.90;;;;;;5073982;28;20093;-76
2022/05/13 11:15:20;;;;;;;9.35;1.70;;;16.80;99.90;;;;;;5089821;28;20044;-77
2022/05/13 11:17:46;;;;;;;11.75;1.70;;;16.50;99.90;;;;;;5080027;28;20040;-76
2022/05/13 11:20:30;;;;;;;9.43;1.85;;;16.40;99.90;;;;;;5098735;28;20040;-77
2022/05/13 11:23:20;;;;;;;15.13;2.60;;;16.60;99.90;;;;;;5084133;28;20101;-76
2022/05/13 11:26:04;;;;;;;14.93;2.13;;;16.40;99.90;;;;;;5094721;28;20112;-79
2022/05/13 11:28:49;;;;;;;10.80;2.33;;;16.40;99.90;;;;;;5086442;28;20124;-76
2022/05/13 11:31:36;;;;;;;10.10;2.27;;;16.40;99.90;;;;;;5097169;28;20089;-77
2022/05/13 11:34:05;;;;;;;7.97;2.08;;;16.30;99.90;;;;;;5076350;28;20511;-76
2022/05/13 11:36:53;;;;;;;17.23;2.20;;;16.30;99.90;;;;;;5086666;28;20044;-76
2022/05/13 11:39:29;;;;;;;8.57;1.85;;;16.30;99.90;;;;;;5071452;28;21654;-76
2022/05/13 11:42:18;;;;;;;18.10;2.40;;;16.40;99.90;;;;;;5072207;28;20393;-76
2022/05/13 11:45:15;;;;;;;15.32;2.50;;;16.60;99.90;;;;;;5086281;28;20063;-77
2022/05/13 11:48:13;;;;;;;9.27;2.05;;;16.90;99.90;;;;;;5071717;28;20047;-78
2022/05/13 11:50:38;;;;;;;10.25;1.80;;;17.10;99.90;;;;;;5074307;28;20127;-77
2022/05/13 11:53:04;;;;;;;8.18;2.10;;;17.40;99.90;;;;;;5072851;28;20043;-76
2022/05/13 11:55:47;;;;;;;6.90;2.00;;;17.70;99.90;;;;;;5073893;28;20473;-77
2022/05/13 11:58:44;;;;;;;9.27;1.73;;;17.70;99.90;;;;;;5088002;28;20055;-79
2022/05/13 12:01:10;;;;;;;6.82;1.77;;;17.50;99.90;;;;;;5098380;28;20479;-76
2022/05/13 12:03:38;;;;;;;9.90;2.00;;;17.50;99.90;;;;;;5098353;28;20108;-76
2022/05/13 12:06:08;;;;;;;13.88;1.60;;;17.40;99.90;;;;;;5088718;28;20040;-76
2022/05/13 12:08:49;;;;;;;11.27;1.65;;;17.20;99.90;;;;;;5094085;28;20044;-77
2022/05/13 12:11:34;;;;;;;9.10;1.67;;;17.10;99.90;;;;;;5089996;28;20047;-78
2022/05/13 12:14:21;;;;;;;7.15;1.60;;;17.20;99.90;;;;;;5088963;28;20089;-77
2022/05/13 12:17:04;;;;;;;10.57;2.05;;;17.20;99.90;;;;;;5077875;28;20055;-76
2022/05/13 12:19:52;;;;;;;9.10;2.20;;;17.10;99.90;;;;;;5106066;28;20433;-77
2022/05/13 12:22:37;;;;;;;21.27;2.50;;;17.00;99.90;;;;;;5091595;28;20130;-76
2022/05/13 12:25:05;;;;;;;;;;;17.10;99.90;;;;;;5085495;28;20554;-74
2022/05/13 12:28:00;;;;;;;8.25;2.17;;;17.50;99.90;;;;;;5076606;28;19934;-74
2022/05/13 12:30:35;;;;;;;8.98;2.20;;;17.60;99.90;;;;;;5088208;28;20035;-79
2022/05/13 12:33:19;;;;;;;10.02;2.53;;;17.50;99.90;;;;;;5091706;28;20126;-77
2022/05/13 12:39:08;;;;;;;10.60;2.10;;;17.30;99.90;;;;;;5091334;28;20048;-78
2022/05/13 12:42:06;;;;;;;9.40;2.10;;;17.50;99.90;;;;;;5091802;28;20058;-77
2022/05/13 12:44:31;;;;;;;9.27;2.00;;;17.90;99.90;;;;;;5089905;28;20471;-78
2022/05/13 12:47:20;;;;;;;14.57;2.47;;;18.10;99.90;;;;;;5073966;28;20097;-79
2022/05/13 12:49:49;;;;;;;13.05;2.10;;;18.50;99.90;;;;;;5094532;28;20515;-79
2022/05/13 12:52:27;;;;;;;10.68;2.10;;;18.10;99.90;;;;;;5092068;28;20506;-79
2022/05/13 12:55:05;;;;;;;10.20;1.90;;;18.20;99.90;;;;;;5083377;28;20066;-79
2022/05/13 12:57:37;;;;;;;13.98;2.20;;;18.10;99.90;;;;;;5092434;28;20048;-79
2022/05/13 13:00:10;;;;;;;9.77;1.95;;;17.90;99.90;;;;;;5090996;28;20467;-79
2022/05/13 13:02:38;;;;;;;11.80;2.00;;;17.80;99.90;;;;;;5091274;28;20071;-79
2022/05/13 13:05:08;;;;;;;6.75;1.85;;;17.80;99.90;;;;;;5074357;28;20052;-79
2022/05/13 13:07:36;;;;;;;29.58;3.15;;;17.70;99.90;;;;;;5079470;28;20181;-79
2022/05/13 13:10:05;;;;;;;11.90;2.53;;;17.80;99.90;;;;;;5073182;28;20051;-79
2022/05/13 13:12:37;;;;;;;18.20;2.22;;;18.20;99.90;;;;;;5090037;28;20424;-78
2022/05/13 13:15:14;;;;;;;20.58;2.40;;;18.10;99.90;;;;;;5093820;28;20096;-80
2022/05/13 13:17:56;;;;;;;27.90;2.53;;;18.40;99.90;;;;;;5075646;28;20028;-79
2022/05/13 13:20:25;;;;;;;18.08;2.10;;;18.80;99.90;;;;;;5091167;28;20044;-80
2022/05/13 13:22:59;;;;;;;13.38;2.40;;;18.90;99.90;;;;;;5093931;28;20109;-79
2022/05/13 13:25:28;;;;;;;8.95;2.20;;;18.90;99.90;;;;;;5094514;28;20548;-79
2022/05/13 13:28:03;;;;;;;11.13;2.22;;;19.50;99.90;;;;;;5091313;28;20052;-79